Погода Сингуилуканна 2 недели

Идальго, Мексика

25 февраля-08 марта
  • 25февраля
    Сегодня
    +13°
    +27°
    Ясно и безоблачно
    ВремяПогодаТемператураВлажностьДавлениеВетер, м/сВероятность осадков
    00:00Ясно и безоблачно+12°C74 %567 мм0.9 м/с7 %
    03:00Небольшая облачность+12°C42 %566 мм1.2 м/с5 %
    06:00Ясно и безоблачно+12°C40 %566 мм0.7 м/с2 %
    09:00Ясно и безоблачно+17°C25 %570 мм0.5 м/с2 %
    12:00Небольшая облачность+23°C10 %572 мм3.4 м/с2 %
    15:00Ясно и безоблачно+26°C16 %572 мм4.4 м/с2 %
    18:00Ясно и безоблачно+21°C32 %571 мм4.1 м/с2 %
    21:00Ясно и безоблачно+16°C41 %570 мм3.6 м/с2 %
  • 26февраля
    Понедельник
    +12°
    +27°
    Ясно и безоблачно
    ВремяПогодаТемператураВлажностьДавлениеВетер, м/сВероятность осадков
    00:00Ясно и безоблачно+14°C32 %569 мм2.2 м/с2 %
    03:00Ясно и безоблачно+14°C22 %568 мм0.6 м/с2 %
    06:00Ясно и безоблачно+16°C19 %569 мм1.0 м/с2 %
    09:00Ясно и безоблачно+16°C18 %570 мм1.6 м/с2 %
    12:00Ясно и безоблачно+24°C13 %573 мм3.2 м/с2 %
    15:00Ясно и безоблачно+27°C15 %572 мм4.3 м/с2 %
    18:00Ясно и безоблачно+22°C29 %571 мм4.0 м/с2 %
    21:00Ясно и безоблачно+17°C28 %569 мм2.8 м/с2 %
  • 27февраля
    Вторник
    +13°
    +29°
    Ясно и безоблачно
    ВремяПогодаТемператураВлажностьДавлениеВетер, м/сВероятность осадков
    00:00Ясно и безоблачно+15°C29 %567 мм1.8 м/с2 %
    03:00Ясно и безоблачно+13°C34 %565 мм2.2 м/с2 %
    06:00Ясно и безоблачно+14°C35 %566 мм2.2 м/с2 %
    09:00Ясно и безоблачно+18°C24 %569 мм1.6 м/с2 %
    12:00Ясно и безоблачно+25°C15 %572 мм1.0 м/с2 %
    15:00Ясно и безоблачно+29°C12 %571 мм2.0 м/с2 %
    18:00Ясно и безоблачно+23°C23 %569 мм3.8 м/с2 %
    21:00Небольшая облачность+17°C28 %567 мм1.9 м/с2 %
  • 28февраля
    Среда
    +9°
    +29°
    Небольшая облачность
    ВремяПогодаТемператураВлажностьДавлениеВетер, м/сВероятность осадков
    00:00Ясно и безоблачно+18°C20 %567 мм1.4 м/с2 %
    03:00Ясно и безоблачно+14°C26 %565 мм2.4 м/с2 %
    06:00Ясно и безоблачно+14°C34 %565 мм2.4 м/с2 %
    09:00Небольшая облачность+18°C26 %569 мм1.5 м/с2 %
    12:00Облачно с прояснениями+25°C17 %571 мм2.4 м/с2 %
    15:00Небольшая облачность+28°C16 %571 мм3.5 м/с7 %
    18:00Практически безоблачно+22°C35 %570 мм5.2 м/с9 %
    21:00Ясно и безоблачно+17°C45 %569 мм4.0 м/с2 %
Мы используем cookies
Соглашаюсь